createdAt,value
2023-04-15T00:02:18.645Z,70.00
2023-04-15T00:04:48.969Z,70.10
2023-04-15T00:07:16.345Z,70.10
2023-04-15T00:09:43.137Z,70.10
2023-04-15T00:12:09.885Z,70.00
2023-04-15T00:14:36.957Z,70.00
2023-04-15T00:17:04.721Z,70.10
2023-04-15T00:19:32.576Z,70.00
2023-04-15T00:22:00.178Z,70.00
2023-04-15T00:24:26.890Z,70.10
2023-04-15T00:26:53.673Z,70.00
2023-04-15T00:29:20.366Z,70.00
2023-04-15T00:31:47.050Z,70.00
2023-04-15T00:34:14.014Z,70.00
2023-04-15T00:36:43.385Z,70.00
2023-04-15T00:39:10.360Z,70.00
2023-04-15T00:41:39.365Z,70.00
2023-04-15T00:44:07.158Z,70.00
2023-04-15T00:46:36.250Z,70.00
2023-04-15T00:49:04.487Z,69.90
2023-04-15T00:51:33.516Z,69.90
2023-04-15T00:54:00.709Z,70.00
2023-04-15T00:56:29.371Z,69.90
2023-04-15T00:58:57.383Z,69.90
2023-04-15T01:01:25.486Z,69.90
2023-04-15T01:03:52.606Z,69.90
2023-04-15T01:06:19.414Z,69.90
2023-04-15T01:08:46.096Z,69.90
2023-04-15T01:11:13.711Z,69.80
2023-04-15T01:13:40.738Z,69.90
2023-04-15T01:16:08.747Z,69.80
2023-04-15T01:18:38.767Z,69.80
2023-04-15T01:21:07.722Z,69.80
2023-04-15T01:23:37.679Z,69.80
2023-04-15T01:26:05.202Z,69.80
2023-04-15T01:28:32.929Z,69.90
2023-04-15T01:31:12.369Z,69.80
2023-04-15T01:33:41.093Z,69.90
2023-04-15T01:36:09.623Z,69.80
2023-04-15T01:38:37.541Z,69.80
2023-04-15T01:41:04.839Z,69.80
2023-04-15T01:43:31.574Z,69.80
2023-04-15T01:45:58.263Z,69.80
2023-04-15T01:48:25.181Z,69.80
2023-04-15T01:50:53.389Z,69.80
2023-04-15T01:53:21.319Z,69.80
2023-04-15T01:55:47.992Z,69.80
2023-04-15T01:58:15.103Z,69.80
2023-04-15T02:00:41.887Z,69.70
2023-04-15T02:03:08.754Z,69.70
2023-04-15T02:05:35.822Z,69.70
2023-04-15T02:08:03.993Z,69.70
2023-04-15T02:10:31.097Z,69.70
2023-04-15T02:12:58.642Z,69.80
2023-04-15T02:15:28.253Z,69.80
2023-04-15T02:17:55.442Z,69.80
2023-04-15T02:20:22.614Z,69.90
2023-04-15T02:22:49.804Z,69.90
2023-04-15T02:25:17.131Z,69.90
2023-04-15T02:27:44.465Z,69.80
2023-04-15T02:30:11.473Z,69.80
2023-04-15T02:32:38.582Z,69.80
2023-04-15T02:35:06.797Z,69.90
2023-04-15T02:37:37.051Z,70.50
2023-04-15T02:40:04.911Z,69.90
2023-04-15T02:42:31.910Z,70.50
2023-04-15T02:45:00.724Z,69.90
2023-04-15T02:47:32.062Z,69.90
2023-04-15T02:50:00.449Z,70.00
2023-04-15T02:52:28.864Z,69.90
2023-04-15T02:55:00.433Z,70.10
2023-04-15T02:57:30.967Z,70.00
2023-04-15T03:00:02.101Z,69.90
2023-04-15T03:02:35.324Z,70.00
2023-04-15T03:05:02.751Z,70.00
2023-04-15T03:07:29.797Z,70.00
2023-04-15T03:09:56.507Z,70.10
2023-04-15T03:12:23.302Z,70.00
2023-04-15T03:14:52.278Z,70.00
2023-04-15T03:17:22.809Z,70.00
2023-04-15T03:19:49.902Z,69.90
2023-04-15T03:22:17.107Z,69.90
2023-04-15T03:24:43.805Z,69.80
2023-04-15T03:27:10.976Z,69.80
2023-04-15T03:29:37.673Z,69.80
2023-04-15T03:32:04.537Z,69.90
2023-04-15T03:34:34.377Z,69.90
2023-04-15T03:37:01.386Z,69.90
2023-04-15T03:39:28.010Z,69.90
2023-04-15T03:41:54.663Z,69.90
2023-04-15T03:44:21.336Z,69.90
2023-04-15T03:46:48.200Z,70.00
2023-04-15T03:49:14.927Z,69.90
2023-04-15T03:51:41.599Z,69.90
2023-04-15T03:54:08.257Z,69.90
2023-04-15T03:56:34.919Z,69.90
2023-04-15T03:59:01.991Z,70.10
2023-04-15T04:01:28.968Z,69.90
2023-04-15T04:03:56.039Z,70.00
2023-04-15T04:06:22.817Z,70.00
2023-04-15T04:08:49.480Z,70.00
2023-04-15T04:11:16.214Z,70.10
2023-04-15T04:13:42.881Z,70.30
2023-04-15T04:16:09.650Z,70.40
2023-04-15T04:18:36.370Z,70.50
2023-04-15T04:21:03.150Z,70.40
2023-04-15T04:23:29.820Z,70.30
2023-04-15T04:25:56.796Z,70.30
2023-04-15T04:28:23.646Z,70.20
2023-04-15T04:30:51.076Z,70.20
2023-04-15T04:33:17.834Z,70.20
2023-04-15T04:35:44.507Z,70.10
2023-04-15T04:38:11.405Z,70.10
2023-04-15T04:40:38.380Z,70.10
2023-04-15T04:43:05.544Z,70.10
2023-04-15T04:45:32.375Z,70.10
2023-04-15T04:47:59.076Z,70.00
2023-04-15T04:50:25.925Z,70.00
2023-04-15T04:52:52.651Z,70.00
2023-04-15T04:55:19.487Z,70.00
2023-04-15T04:57:46.258Z,69.90
2023-04-15T05:00:14.015Z,69.80
2023-04-15T05:02:42.406Z,69.80
2023-04-15T05:05:09.797Z,69.80
2023-04-15T05:07:36.729Z,69.80
2023-04-15T05:10:03.726Z,69.70
2023-04-15T05:12:30.421Z,69.70
2023-04-15T05:14:57.119Z,69.70
2023-04-15T05:17:24.022Z,69.70
2023-04-15T05:19:50.825Z,69.70
2023-04-15T05:22:17.474Z,69.70
2023-04-15T05:24:44.103Z,69.70
2023-04-15T05:27:11.597Z,69.70
2023-04-15T05:29:38.341Z,69.70
2023-04-15T05:32:05.570Z,69.60
2023-04-15T05:34:32.225Z,69.60
2023-04-15T05:36:58.848Z,69.60
2023-04-15T05:39:25.682Z,69.60
2023-04-15T05:41:52.347Z,69.60
2023-04-15T05:44:19.065Z,69.60
2023-04-15T05:46:45.699Z,69.60
2023-04-15T05:49:12.363Z,69.60
2023-04-15T05:51:39.004Z,69.60
2023-04-15T05:54:05.709Z,69.50
2023-04-15T05:56:32.431Z,69.50
2023-04-15T05:58:59.403Z,69.50
2023-04-15T06:01:26.449Z,70.20
2023-04-15T06:03:53.390Z,69.60
2023-04-15T06:06:20.899Z,69.60
2023-04-15T06:08:47.588Z,69.60
2023-04-15T06:11:14.420Z,70.10
2023-04-15T06:13:41.378Z,69.30
2023-04-15T06:16:08.102Z,69.50
2023-04-15T06:18:34.872Z,69.50
2023-04-15T06:21:01.648Z,69.50
2023-04-15T06:23:28.494Z,69.50
2023-04-15T06:25:55.190Z,69.50
2023-04-15T06:28:21.865Z,69.30
2023-04-15T06:30:48.544Z,69.40
2023-04-15T06:33:15.906Z,69.50
2023-04-15T06:35:42.563Z,69.50
2023-04-15T06:38:09.241Z,69.50
2023-04-15T06:40:36.015Z,69.50
2023-04-15T06:43:02.710Z,69.50
2023-04-15T06:45:29.431Z,69.50
2023-04-15T06:47:56.171Z,69.50
2023-04-15T06:50:22.897Z,69.40
2023-04-15T06:52:49.864Z,70.00
2023-04-15T06:55:16.602Z,69.40
2023-04-15T06:57:43.246Z,69.40
2023-04-15T07:00:12.044Z,69.40
2023-04-15T07:02:38.954Z,69.30
2023-04-15T07:05:06.482Z,69.30
2023-04-15T07:07:33.180Z,69.20
2023-04-15T07:10:01.930Z,69.30
2023-04-15T07:12:28.655Z,69.20
2023-04-15T07:14:55.423Z,69.20
2023-04-15T07:17:22.187Z,69.20
2023-04-15T07:19:49.268Z,69.10
2023-04-15T07:22:15.983Z,69.10
2023-04-15T07:24:42.710Z,69.10
2023-04-15T07:27:09.363Z,69.10
2023-04-15T07:29:36.110Z,69.10
2023-04-15T07:32:03.376Z,69.10
2023-04-15T07:34:31.433Z,69.10
2023-04-15T07:36:59.206Z,69.30
2023-04-15T07:39:26.394Z,69.00
2023-04-15T07:41:53.094Z,69.00
2023-04-15T07:44:19.787Z,69.50
2023-04-15T07:46:46.561Z,69.60
2023-04-15T07:49:13.393Z,69.60
2023-04-15T07:51:40.083Z,69.60
2023-04-15T07:54:07.392Z,69.60
2023-04-15T07:56:34.050Z,69.80
2023-04-15T07:59:02.619Z,69.90
2023-04-15T08:01:29.531Z,70.00
2023-04-15T08:03:57.187Z,70.00
2023-04-15T08:06:24.384Z,69.80
2023-04-15T08:08:51.037Z,68.20
2023-04-15T08:11:17.722Z,68.80
2023-04-15T08:13:44.394Z,68.70
2023-04-15T08:16:19.975Z,69.20
2023-04-15T08:18:48.620Z,69.20
2023-04-15T08:21:16.304Z,69.20
2023-04-15T08:23:44.483Z,69.60
2023-04-15T08:26:11.549Z,69.00
2023-04-15T08:28:39.992Z,69.00
2023-04-15T08:31:06.791Z,69.10
2023-04-15T08:33:33.458Z,68.80
2023-04-15T08:36:00.189Z,68.70
2023-04-15T08:38:27.250Z,68.70
2023-04-15T08:40:53.924Z,68.80
2023-04-15T08:43:28.374Z,68.70
2023-04-15T08:45:55.785Z,68.70
2023-04-15T08:48:24.499Z,68.90
2023-04-15T08:50:52.114Z,68.80
2023-04-15T08:53:19.158Z,68.50
2023-04-15T08:55:51.133Z,68.60
2023-04-15T08:58:19.608Z,68.70
2023-04-15T09:00:46.521Z,68.70
2023-04-15T09:03:13.668Z,68.60
2023-04-15T09:05:40.416Z,68.50
2023-04-15T09:08:07.504Z,68.30
2023-04-15T09:10:34.202Z,68.20
2023-04-15T09:13:02.072Z,68.50
2023-04-15T09:15:29.987Z,68.50
2023-04-15T09:17:56.945Z,68.80
2023-04-15T09:20:24.052Z,68.70
2023-04-15T09:22:52.314Z,68.60
2023-04-15T09:25:21.730Z,68.40
2023-04-15T09:27:54.275Z,68.30
2023-04-15T09:30:21.222Z,68.30
2023-04-15T09:33:08.489Z,68.50
2023-04-15T09:35:38.388Z,68.60
2023-04-15T09:38:07.431Z,68.60
2023-04-15T09:40:36.341Z,68.80
2023-04-15T09:43:07.269Z,68.70
2023-04-15T09:45:35.830Z,68.60
2023-04-15T09:48:17.209Z,68.50
2023-04-15T09:50:44.539Z,68.50
2023-04-15T09:53:12.402Z,68.50
2023-04-15T09:55:39.043Z,68.60
2023-04-15T09:58:19.514Z,68.50
2023-04-15T10:00:50.679Z,68.40
2023-04-15T10:03:31.639Z,68.30
2023-04-15T10:06:00.315Z,68.20
2023-04-15T10:08:33.075Z,68.20
2023-04-15T10:11:02.002Z,68.20
2023-04-15T10:13:33.335Z,68.30
2023-04-15T10:16:20.818Z,68.50
2023-04-15T10:18:56.962Z,68.60
2023-04-15T10:21:24.117Z,68.30
2023-04-15T10:23:51.332Z,68.20
2023-04-15T10:26:18.349Z,68.10
2023-04-15T10:28:47.134Z,68.10
2023-04-15T10:31:18.488Z,67.90
2023-04-15T10:33:48.467Z,67.80
2023-04-15T10:36:15.937Z,67.90
2023-04-15T10:38:44.461Z,68.10
2023-04-15T10:41:34.612Z,68.00
2023-04-15T10:44:05.532Z,68.00
2023-04-15T10:46:39.188Z,68.20
2023-04-15T10:49:12.576Z,68.20
2023-04-15T10:51:44.180Z,68.10
2023-04-15T10:54:32.530Z,68.00
2023-04-15T10:57:02.798Z,68.00
2023-04-15T10:59:30.461Z,68.20
2023-04-15T11:02:01.970Z,68.10
2023-04-15T11:04:59.890Z,68.10
2023-04-15T11:07:36.970Z,67.70
2023-04-15T11:10:25.377Z,67.50
2023-04-15T11:12:54.343Z,67.60
2023-04-15T11:15:33.988Z,67.30
2023-04-15T11:18:20.167Z,67.30
2023-04-15T11:20:50.485Z,67.90
2023-04-15T11:23:19.451Z,67.30
2023-04-15T11:25:46.353Z,67.60
2023-04-15T11:28:13.528Z,67.50
2023-04-15T11:30:40.703Z,67.70
2023-04-15T11:33:09.119Z,67.80
2023-04-15T11:35:36.497Z,67.90
2023-04-15T11:38:05.326Z,67.70
2023-04-15T11:40:35.464Z,67.70
2023-04-15T11:43:07.893Z,67.80
2023-04-15T11:45:36.090Z,67.90
2023-04-15T11:48:10.539Z,67.80
2023-04-15T11:50:40.544Z,67.90
2023-04-15T11:53:13.009Z,67.90
2023-04-15T11:55:46.293Z,67.50
2023-04-15T11:58:24.101Z,67.60
2023-04-15T12:00:52.974Z,67.90
2023-04-15T12:03:28.539Z,67.80
2023-04-15T12:06:17.822Z,68.10
2023-04-15T12:09:06.383Z,68.10
2023-04-15T12:11:50.974Z,68.10
2023-04-15T12:14:21.120Z,68.10
2023-04-15T12:16:51.724Z,68.20
2023-04-15T12:19:27.481Z,68.10
2023-04-15T12:22:01.229Z,68.20
2023-04-15T12:24:31.069Z,68.10
2023-04-15T12:27:01.755Z,68.10
2023-04-15T12:29:30.169Z,68.10
2023-04-15T12:31:59.143Z,68.20
2023-04-15T12:34:28.416Z,68.10
2023-04-15T12:36:55.503Z,68.20
2023-04-15T12:39:24.335Z,68.20
2023-04-15T12:41:52.396Z,68.20
2023-04-15T12:44:19.423Z,68.10
2023-04-15T12:46:46.802Z,68.20
2023-04-15T12:49:15.886Z,68.20
2023-04-15T12:51:42.889Z,68.10
2023-04-15T12:54:09.575Z,68.20
2023-04-15T12:56:36.268Z,68.00
2023-04-15T12:59:03.078Z,67.80
2023-04-15T13:01:29.782Z,67.90
2023-04-15T13:03:56.550Z,67.60
2023-04-15T13:06:24.600Z,67.70
2023-04-15T13:08:58.262Z,67.70
2023-04-15T13:11:25.980Z,67.50
2023-04-15T13:13:52.969Z,67.70
2023-04-15T13:16:19.878Z,67.80
2023-04-15T13:18:47.007Z,67.70
2023-04-15T13:21:13.760Z,67.60
2023-04-15T13:23:42.280Z,67.80
2023-04-15T13:26:08.935Z,67.50
2023-04-15T13:28:36.032Z,67.30
2023-04-15T13:31:02.984Z,67.10
2023-04-15T13:33:29.795Z,67.30
2023-04-15T13:35:56.729Z,67.80
2023-04-15T13:38:25.212Z,67.30
2023-04-15T13:40:52.160Z,67.10
2023-04-15T13:43:18.813Z,66.80
2023-04-15T13:45:47.342Z,66.70
2023-04-15T13:48:14.232Z,66.80
2023-04-15T13:50:45.133Z,66.80
2023-04-15T13:53:12.527Z,67.00
2023-04-15T13:55:42.691Z,67.00
2023-04-15T13:58:09.942Z,67.00
2023-04-15T14:00:36.784Z,67.50
2023-04-15T14:03:03.816Z,67.00
2023-04-15T14:05:31.113Z,67.00
2023-04-15T14:07:59.078Z,67.00
2023-04-15T14:10:25.777Z,67.10
2023-04-15T14:12:52.428Z,67.00
2023-04-15T14:15:19.191Z,67.00
2023-04-15T14:17:45.955Z,67.00
2023-04-15T14:20:14.019Z,66.90
2023-04-15T14:22:42.820Z,66.80
2023-04-15T14:25:11.711Z,66.80
2023-04-15T14:27:44.289Z,66.80
2023-04-15T14:30:11.328Z,66.80
2023-04-15T14:32:38.057Z,67.10
2023-04-15T14:35:05.019Z,66.80
2023-04-15T14:37:31.685Z,66.70
2023-04-15T14:39:58.419Z,66.60
2023-04-15T14:42:25.496Z,66.50
2023-04-15T14:44:52.180Z,66.50
2023-04-15T14:47:18.891Z,66.60
2023-04-15T14:49:45.765Z,66.60
2023-04-15T14:52:12.717Z,66.60
2023-04-15T14:54:39.365Z,66.60
2023-04-15T14:57:06.144Z,66.50
2023-04-15T14:59:32.817Z,66.60
2023-04-15T15:01:59.774Z,67.20
2023-04-15T15:04:26.701Z,66.70
2023-04-15T15:06:53.468Z,66.80
2023-04-15T15:09:22.106Z,66.70
2023-04-15T15:11:48.732Z,66.70
2023-04-15T15:14:15.487Z,66.50
2023-04-15T15:16:42.402Z,66.60
2023-04-15T15:19:09.055Z,66.50
2023-04-15T15:21:35.948Z,66.40
2023-04-15T15:24:02.976Z,66.40
2023-04-15T15:26:29.764Z,66.40
2023-04-15T15:28:56.434Z,66.30
2023-04-15T15:31:23.232Z,66.40
2023-04-15T15:33:50.005Z,66.30
2023-04-15T15:36:16.662Z,66.30
2023-04-15T15:38:43.335Z,66.30
2023-04-15T15:41:10.176Z,66.30
2023-04-15T15:43:36.894Z,66.30
2023-04-15T15:46:03.857Z,66.30
2023-04-15T15:48:31.233Z,66.50
2023-04-15T15:50:57.912Z,66.40
2023-04-15T15:53:25.756Z,66.50
2023-04-15T15:55:53.905Z,66.70
2023-04-15T15:58:20.916Z,66.90
2023-04-15T16:00:47.801Z,66.90
2023-04-15T16:03:15.441Z,66.80
2023-04-15T16:05:42.674Z,67.00
2023-04-15T16:08:09.552Z,66.90
2023-04-15T16:10:37.572Z,67.00
2023-04-15T16:13:04.216Z,67.10
2023-04-15T16:15:30.960Z,67.10
2023-04-15T16:17:57.627Z,67.20
2023-04-15T16:20:24.436Z,67.30
2023-04-15T16:22:51.105Z,67.60
2023-04-15T16:25:18.093Z,67.90
2023-04-15T16:27:58.833Z,68.20
2023-04-15T16:30:30.302Z,68.60
2023-04-15T16:32:57.491Z,68.90
2023-04-15T16:35:24.189Z,68.50
2023-04-15T16:37:50.836Z,68.40
2023-04-15T16:40:17.715Z,68.10
2023-04-15T16:42:44.404Z,68.20
2023-04-15T16:45:11.408Z,68.70
2023-04-15T16:47:38.122Z,68.70
2023-04-15T16:50:05.537Z,69.00
2023-04-15T16:52:32.908Z,69.10
2023-04-15T16:54:59.974Z,69.30
2023-04-15T16:57:31.649Z,69.30
2023-04-15T17:00:13.520Z,69.30
2023-04-15T17:02:40.291Z,69.30
2023-04-15T17:05:07.734Z,69.20
2023-04-15T17:07:34.366Z,69.40
2023-04-15T17:10:01.169Z,69.60
2023-04-15T17:12:27.876Z,69.50
2023-04-15T17:14:54.626Z,69.30
2023-04-15T17:17:22.314Z,69.10
2023-04-15T17:19:49.076Z,68.90
2023-04-15T17:22:16.965Z,69.00
2023-04-15T17:24:43.595Z,69.00
2023-04-15T17:27:10.479Z,68.90
2023-04-15T17:29:37.101Z,68.80
2023-04-15T17:32:04.063Z,68.80
2023-04-15T17:34:49.521Z,68.80
2023-04-15T17:37:17.514Z,68.80
2023-04-15T17:39:44.189Z,68.60
2023-04-15T17:42:11.530Z,68.60
2023-04-15T17:44:38.193Z,68.60
2023-04-15T17:47:05.091Z,68.60
2023-04-15T17:49:32.632Z,68.60
2023-04-15T17:51:59.419Z,68.70
2023-04-15T17:54:26.070Z,68.60
2023-04-15T17:56:53.584Z,68.70
2023-04-15T17:59:20.431Z,68.60
2023-04-15T18:01:47.144Z,68.50
2023-04-15T18:04:13.986Z,68.50
2023-04-15T18:06:40.841Z,68.50
2023-04-15T18:09:08.857Z,68.50
2023-04-15T18:11:35.614Z,68.40
2023-04-15T18:14:04.123Z,68.30
2023-04-15T18:16:31.212Z,68.50
2023-04-15T18:18:58.041Z,68.40
2023-04-15T18:21:24.695Z,68.40
2023-04-15T18:23:51.348Z,68.40
2023-04-15T18:26:18.036Z,68.40
2023-04-15T18:28:44.731Z,68.40
2023-04-15T18:31:11.440Z,68.40
2023-04-15T18:33:39.033Z,68.40
2023-04-15T18:36:05.952Z,68.30
2023-04-15T18:38:32.735Z,68.40
2023-04-15T18:40:59.512Z,68.40
2023-04-15T18:43:26.211Z,68.30
2023-04-15T18:45:54.590Z,68.50
2023-04-15T18:48:21.392Z,68.50
2023-04-15T18:50:48.968Z,68.50
2023-04-15T18:53:15.646Z,68.50
2023-04-15T18:55:42.297Z,68.40
2023-04-15T18:58:09.372Z,68.50
2023-04-15T19:00:40.269Z,68.40
2023-04-15T19:03:07.612Z,68.40
2023-04-15T19:05:34.481Z,68.50
2023-04-15T19:08:01.434Z,68.30
2023-04-15T19:10:28.498Z,68.40
2023-04-15T19:12:55.609Z,68.30
2023-04-15T19:15:22.315Z,68.30
2023-04-15T19:17:49.001Z,68.30
2023-04-15T19:20:15.832Z,68.30
2023-04-15T19:22:43.230Z,68.30
2023-04-15T19:25:10.249Z,68.20
2023-04-15T19:27:38.218Z,68.30
2023-04-15T19:30:07.055Z,68.20
2023-04-15T19:32:34.570Z,68.20
2023-04-15T19:35:01.344Z,68.20
2023-04-15T19:37:28.232Z,68.30
2023-04-15T19:39:56.019Z,68.20
2023-04-15T19:42:22.765Z,68.20
2023-04-15T19:44:50.809Z,68.20
2023-04-15T19:47:17.620Z,68.20
2023-04-15T19:49:44.366Z,68.80
2023-04-15T19:52:11.076Z,68.20
2023-04-15T19:54:37.787Z,68.20
2023-04-15T19:57:04.488Z,68.20
2023-04-15T19:59:31.289Z,68.20
2023-04-15T20:01:58.157Z,68.20
2023-04-15T20:04:25.099Z,68.20
2023-04-15T20:06:51.935Z,68.20
2023-04-15T20:09:18.604Z,68.20
2023-04-15T20:12:44.910Z,68.10
2023-04-15T20:14:31.947Z,68.20
2023-04-15T20:16:58.571Z,68.20
2023-04-15T20:19:25.434Z,68.20
2023-04-15T20:21:53.885Z,68.10
2023-04-15T20:24:21.440Z,68.20
2023-04-15T20:26:48.094Z,68.80
2023-04-15T20:29:14.828Z,68.20
2023-04-15T20:31:41.526Z,68.20
2023-04-15T20:34:11.357Z,68.10
2023-04-15T20:36:38.764Z,68.10
2023-04-15T20:39:05.622Z,68.10
2023-04-15T20:41:32.463Z,68.20
2023-04-15T20:43:59.106Z,68.10
2023-04-15T20:46:27.386Z,68.20
2023-04-15T20:48:54.673Z,68.20
2023-04-15T20:51:21.394Z,68.10
2023-04-15T20:53:48.149Z,68.20
2023-04-15T20:56:14.806Z,68.20
2023-04-15T20:58:41.496Z,68.10
2023-04-15T21:01:08.179Z,68.20
2023-04-15T21:03:35.035Z,68.20
2023-04-15T21:06:01.840Z,68.20
2023-04-15T21:08:31.657Z,68.30
2023-04-15T21:10:58.402Z,68.20
2023-04-15T21:13:25.200Z,68.20
2023-04-15T21:15:53.937Z,68.20
2023-04-15T21:18:22.030Z,68.30
2023-04-15T21:20:57.273Z,68.20
2023-04-15T21:23:23.969Z,68.30
2023-04-15T21:25:50.772Z,68.30
2023-04-15T21:28:17.509Z,68.30
2023-04-15T21:30:45.561Z,68.20
2023-04-15T21:33:12.329Z,68.20
2023-04-15T21:35:39.194Z,68.20
2023-04-15T21:38:05.885Z,68.20
2023-04-15T21:40:32.569Z,68.40
2023-04-15T21:42:59.362Z,68.40
2023-04-15T21:45:26.367Z,68.90
2023-04-15T21:48:05.535Z,68.20
2023-04-15T21:50:36.563Z,68.20
2023-04-15T21:53:04.389Z,68.30
2023-04-15T21:55:31.023Z,68.40
2023-04-15T21:57:57.655Z,68.30
2023-04-15T22:00:24.594Z,68.30
2023-04-15T22:02:52.143Z,68.30
2023-04-15T22:05:19.036Z,68.30
2023-04-15T22:07:45.871Z,68.30
2023-04-15T22:10:12.535Z,68.40
2023-04-15T22:12:42.265Z,68.40
2023-04-15T22:15:09.327Z,68.40
2023-04-15T22:17:36.062Z,68.40
2023-04-15T22:20:03.574Z,68.50
2023-04-15T22:22:43.796Z,68.50
2023-04-15T22:25:11.710Z,68.40
2023-04-15T22:27:38.422Z,68.40
2023-04-15T22:30:05.958Z,68.40
2023-04-15T22:32:32.702Z,68.50
2023-04-15T22:34:59.349Z,68.50
2023-04-15T22:37:26.121Z,68.50
2023-04-15T22:39:52.760Z,68.40
2023-04-15T22:42:19.452Z,68.40
2023-04-15T22:44:46.135Z,68.40
2023-04-15T22:47:12.795Z,68.40
2023-04-15T22:49:39.643Z,68.40
2023-04-15T22:52:07.057Z,68.50
2023-04-15T22:54:34.663Z,68.50
2023-04-15T22:57:02.113Z,68.50
2023-04-15T22:59:28.836Z,68.50
2023-04-15T23:01:57.848Z,68.50
2023-04-15T23:04:25.926Z,68.50
2023-04-15T23:06:55.723Z,68.50
2023-04-15T23:09:22.579Z,68.50
2023-04-15T23:11:49.797Z,68.50
2023-04-15T23:14:16.709Z,68.60
2023-04-15T23:16:43.673Z,68.50
2023-04-15T23:19:10.750Z,68.60
2023-04-15T23:21:37.612Z,68.60
2023-04-15T23:24:04.335Z,68.60
2023-04-15T23:26:31.063Z,68.50
2023-04-15T23:28:57.742Z,68.50
2023-04-15T23:31:24.631Z,68.50
2023-04-15T23:33:51.381Z,68.60
2023-04-15T23:36:18.069Z,68.60
2023-04-15T23:38:44.854Z,68.50
2023-04-15T23:41:12.036Z,68.60
2023-04-15T23:43:38.792Z,68.60
2023-04-15T23:46:05.620Z,68.60
2023-04-15T23:48:32.579Z,68.60
2023-04-15T23:50:59.355Z,68.60
2023-04-15T23:53:26.016Z,68.60
2023-04-15T23:55:52.667Z,68.60
2023-04-15T23:58:19.342Z,68.70
